createdAt,value
2019-04-11T00:00:36.356Z,6.07
2019-04-11T00:03:09.472Z,6.50
2019-04-11T00:05:43.727Z,6.67
2019-04-11T00:08:17.924Z,6.63
2019-04-11T00:10:51.406Z,6.10
2019-04-11T00:13:28.322Z,6.63
2019-04-11T00:16:01.199Z,5.97
2019-04-11T00:18:34.585Z,6.10
2019-04-11T00:21:08.733Z,5.77
2019-04-11T00:23:42.785Z,6.50
2019-04-11T00:26:17.238Z,6.90
2019-04-11T00:28:52.067Z,6.63
2019-04-11T00:31:25.715Z,6.53
2019-04-11T00:33:59.479Z,6.67
2019-04-11T00:36:34.632Z,6.80
2019-04-11T00:39:11.111Z,6.47
2019-04-11T00:41:44.124Z,6.60
2019-04-11T00:44:18.845Z,6.20
2019-04-11T00:46:53.414Z,6.63
2019-04-11T00:49:29.155Z,6.90
2019-04-11T00:52:04.471Z,6.10
2019-04-11T00:54:38.624Z,6.77
2019-04-11T00:57:16.936Z,5.93
2019-04-11T00:59:50.925Z,6.40
2019-04-11T01:02:25.255Z,6.17
2019-04-11T01:04:59.251Z,6.47
2019-04-11T01:07:33.207Z,5.83
2019-04-11T01:10:07.479Z,6.47
2019-04-11T01:12:43.035Z,6.40
2019-04-11T01:15:19.741Z,6.00
2019-04-11T01:17:53.875Z,5.97
2019-04-11T01:20:27.727Z,6.43
2019-04-11T01:23:00.963Z,6.20
2019-04-11T01:25:36.789Z,6.47
2019-04-11T01:28:10.536Z,6.30
2019-04-11T01:30:55.536Z,6.03
2019-04-11T01:33:29.709Z,6.10
2019-04-11T01:36:03.397Z,5.97
2019-04-11T01:38:42.583Z,5.77
2019-04-11T01:41:16.302Z,6.43
2019-04-11T01:43:56.967Z,6.03
2019-04-11T01:46:26.352Z,6.10
2019-04-11T01:49:05.998Z,6.10
2019-04-11T01:51:40.028Z,6.23
2019-04-11T01:54:13.314Z,6.17
2019-04-11T01:56:47.515Z,6.30
2019-04-11T01:59:21.538Z,5.73
2019-04-11T02:02:05.395Z,5.57
2019-04-11T02:04:50.339Z,5.80
2019-04-11T02:07:24.669Z,6.13
2019-04-11T02:09:57.503Z,6.80
2019-04-11T02:12:31.036Z,6.10
2019-04-11T02:15:04.035Z,6.30
2019-04-11T02:17:37.626Z,6.03
2019-04-11T02:20:12.535Z,6.10
2019-04-11T02:22:57.696Z,6.13
2019-04-11T02:25:52.582Z,5.80
2019-04-11T02:28:26.934Z,5.93
2019-04-11T02:31:00.252Z,6.67
2019-04-11T02:33:34.723Z,6.30
2019-04-11T02:36:09.520Z,6.50
2019-04-11T02:38:43.958Z,6.50
2019-04-11T02:41:17.095Z,6.03
2019-04-11T02:43:51.045Z,6.07
2019-04-11T02:46:35.615Z,6.60
2019-04-11T02:49:01.475Z,6.70
2019-04-11T02:51:36.891Z,5.80
2019-04-11T02:54:11.508Z,6.03
2019-04-11T02:56:45.571Z,6.63
2019-04-11T02:59:21.408Z,6.47
2019-04-11T03:02:00.274Z,6.27
2019-04-11T03:04:34.727Z,6.83
2019-04-11T03:07:08.088Z,6.40
2019-04-11T03:09:44.070Z,6.30
2019-04-11T03:12:19.271Z,6.40
2019-04-11T03:15:12.695Z,7.33
2019-04-11T03:17:36.165Z,7.40
2019-04-11T03:20:18.771Z,7.20
2019-04-11T03:22:40.534Z,6.80
2019-04-11T03:25:15.713Z,7.13
2019-04-11T03:27:51.603Z,6.40
2019-04-11T03:30:42.190Z,6.70
2019-04-11T03:33:58.092Z,6.90
2019-04-11T03:36:21.714Z,7.30
2019-04-11T03:38:36.682Z,6.77
2019-04-11T03:41:04.380Z,6.53
2019-04-11T03:43:34.073Z,7.43
2019-04-11T03:46:15.874Z,7.00
2019-04-11T03:48:46.776Z,7.43
2019-04-11T03:51:11.012Z,6.73
2019-04-11T03:53:45.165Z,7.07
2019-04-11T03:56:21.998Z,7.43
2019-04-11T03:58:57.793Z,7.93
2019-04-11T04:01:35.092Z,6.70
2019-04-11T04:04:09.194Z,7.47
2019-04-11T04:06:45.821Z,6.90
2019-04-11T04:09:20.986Z,7.33
2019-04-11T04:11:56.907Z,7.07
2019-04-11T04:14:59.203Z,7.17
2019-04-11T04:18:03.525Z,6.97
2019-04-11T04:20:49.020Z,7.10
2019-04-11T04:23:29.516Z,7.90
2019-04-11T04:26:06.199Z,7.17
2019-04-11T04:28:40.931Z,7.20
2019-04-11T04:31:16.275Z,7.53
2019-04-11T04:33:51.406Z,7.30
2019-04-11T04:36:26.770Z,8.00
2019-04-11T04:39:01.399Z,8.00
2019-04-11T04:41:45.095Z,8.03
2019-04-11T04:44:16.927Z,7.30
2019-04-11T04:47:00.155Z,7.57
2019-04-11T04:49:28.336Z,8.33
2019-04-11T04:52:04.016Z,8.00
2019-04-11T04:54:41.872Z,8.80
2019-04-11T04:57:15.471Z,8.00
2019-04-11T04:59:49.792Z,7.53
2019-04-11T05:02:24.131Z,7.73
2019-04-11T05:04:58.821Z,7.97
2019-04-11T05:07:37.630Z,7.83
2019-04-11T05:10:08.900Z,8.27
2019-04-11T05:12:43.821Z,8.20
2019-04-11T05:15:16.812Z,8.07
2019-04-11T05:17:51.244Z,8.37
2019-04-11T05:20:24.955Z,7.80
2019-04-11T05:23:00.027Z,8.20
2019-04-11T05:25:34.820Z,7.13
2019-04-11T05:28:09.816Z,7.80
2019-04-11T05:30:44.924Z,7.37
2019-04-11T05:33:21.185Z,7.80
2019-04-11T05:35:54.193Z,8.03
2019-04-11T05:38:27.311Z,7.80
2019-04-11T05:41:00.603Z,7.53
2019-04-11T05:43:37.357Z,7.40
2019-04-11T05:46:23.866Z,8.27
2019-04-11T05:49:06.147Z,8.27
2019-04-11T05:51:47.066Z,7.47
2019-04-11T05:54:18.396Z,7.70
2019-04-11T05:56:59.566Z,8.50
2019-04-11T05:59:32.817Z,7.80
2019-04-11T06:02:13.166Z,8.13
2019-04-11T06:04:53.505Z,7.60
2019-04-11T06:07:48.962Z,7.20
2019-04-11T06:10:26.084Z,9.17
2019-04-11T06:13:22.571Z,8.60
2019-04-11T06:16:00.679Z,7.80
2019-04-11T06:18:54.719Z,7.80
2019-04-11T06:21:33.969Z,7.73
2019-04-11T06:24:25.939Z,8.73
2019-04-11T06:27:18.285Z,8.00
2019-04-11T06:30:10.595Z,8.47
2019-04-11T06:33:03.214Z,7.90
2019-04-11T06:36:13.780Z,7.43
2019-04-11T06:38:51.155Z,7.27
2019-04-11T06:41:54.824Z,7.63
2019-04-11T06:44:43.818Z,8.37
2019-04-11T06:47:53.435Z,7.80
2019-04-11T06:50:33.348Z,8.50
2019-04-11T06:53:08.880Z,7.13
2019-04-11T06:56:01.745Z,8.20
2019-04-11T06:58:39.495Z,8.23
2019-04-11T07:01:20.358Z,7.87
2019-04-11T07:03:57.872Z,8.47
2019-04-11T07:06:32.874Z,8.07
2019-04-11T07:09:24.542Z,8.63
2019-04-11T07:12:03.460Z,8.57
2019-04-11T07:14:43.307Z,8.07
2019-04-11T07:17:36.837Z,7.87
2019-04-11T07:20:46.035Z,8.00
2019-04-11T07:23:38.430Z,9.27
2019-04-11T07:26:23.033Z,8.40
2019-04-11T07:29:25.784Z,8.27
2019-04-11T07:32:17.968Z,8.97
2019-04-11T07:35:25.435Z,8.87
2019-04-11T07:37:58.540Z,8.53
2019-04-11T07:41:01.293Z,9.03
2019-04-11T07:43:39.001Z,8.63
2019-04-11T07:46:42.992Z,9.17
2019-04-11T07:49:18.541Z,8.60
2019-04-11T07:51:55.654Z,9.07
2019-04-11T07:54:30.351Z,8.43
2019-04-11T07:57:14.841Z,8.63
2019-04-11T08:00:00.107Z,8.90
2019-04-11T08:02:53.178Z,9.07
2019-04-11T08:05:45.292Z,8.53
2019-04-11T08:08:37.287Z,9.00
2019-04-11T08:11:17.863Z,8.97
2019-04-11T08:14:08.321Z,9.00
2019-04-11T08:17:07.259Z,8.67
2019-04-11T08:19:59.617Z,8.97
2019-04-11T08:22:38.927Z,9.27
2019-04-11T08:25:20.800Z,10.00
2019-04-11T08:28:04.890Z,9.10
2019-04-11T08:30:55.192Z,9.27
2019-04-11T08:33:28.808Z,10.10
2019-04-11T08:36:31.679Z,9.53
2019-04-11T08:39:11.079Z,9.17
2019-04-11T08:42:03.199Z,9.10
2019-04-11T08:44:39.656Z,9.40
2019-04-11T08:47:16.170Z,8.70
2019-04-11T08:49:55.799Z,9.90
2019-04-11T08:52:42.386Z,8.70
2019-04-11T08:55:23.166Z,9.20
2019-04-11T08:58:08.589Z,9.03
2019-04-11T09:00:56.175Z,9.57
2019-04-11T09:04:02.046Z,9.23
2019-04-11T09:06:30.641Z,9.57
2019-04-11T09:09:23.128Z,10.10
2019-04-11T09:12:00.296Z,8.77
2019-04-11T09:14:52.672Z,10.10
2019-04-11T09:17:30.289Z,10.07
2019-04-11T09:20:29.662Z,9.03
2019-04-11T09:23:05.841Z,9.30
2019-04-11T09:25:59.267Z,9.60
2019-04-11T09:28:49.437Z,9.23
2019-04-11T09:31:41.728Z,9.90
2019-04-11T09:34:44.088Z,9.30
2019-04-11T09:37:27.480Z,9.30
2019-04-11T09:40:21.170Z,8.97
2019-04-11T09:43:13.574Z,9.00
2019-04-11T09:46:04.015Z,8.97
2019-04-11T09:48:48.265Z,9.20
2019-04-11T09:51:40.443Z,8.80
2019-04-11T09:54:36.872Z,8.67
2019-04-11T09:57:32.491Z,8.43
2019-04-11T10:00:26.862Z,8.67
2019-04-11T10:03:03.941Z,7.87
2019-04-11T10:06:05.287Z,8.50
2019-04-11T10:08:39.777Z,8.97
2019-04-11T10:11:30.888Z,8.23
2019-04-11T10:14:11.582Z,8.30
2019-04-11T10:17:02.683Z,7.93
2019-04-11T10:19:54.182Z,8.20
2019-04-11T10:22:50.095Z,8.50
2019-04-11T10:25:35.270Z,8.23
2019-04-11T10:28:29.526Z,8.97
2019-04-11T10:31:09.022Z,8.00
2019-04-11T10:34:09.191Z,8.03
2019-04-11T10:36:49.472Z,7.73
2019-04-11T10:39:43.920Z,8.10
2019-04-11T10:42:18.119Z,8.70
2019-04-11T10:45:26.822Z,8.47
2019-04-11T10:48:03.322Z,8.00
2019-04-11T10:50:54.223Z,8.37
2019-04-11T10:53:28.424Z,8.20
2019-04-11T10:56:26.705Z,8.77
2019-04-11T10:59:01.657Z,8.50
2019-04-11T11:01:52.798Z,8.77
2019-04-11T11:04:38.929Z,9.70
2019-04-11T11:07:18.358Z,8.23
2019-04-11T11:09:56.693Z,9.50
2019-04-11T11:12:49.744Z,9.00
2019-04-11T11:15:33.988Z,8.73
2019-04-11T11:19:01.980Z,8.77
2019-04-11T11:21:06.069Z,9.13
2019-04-11T11:23:58.813Z,9.07
2019-04-11T11:26:33.962Z,8.73
2019-04-11T11:29:26.653Z,8.63
2019-04-11T11:32:18.992Z,8.77
2019-04-11T11:34:56.936Z,8.80
2019-04-11T11:38:01.980Z,9.07
2019-04-11T11:40:58.307Z,9.40
2019-04-11T11:43:33.020Z,8.80
2019-04-11T11:46:26.694Z,9.47
2019-04-11T11:49:02.912Z,9.00
2019-04-11T11:52:12.992Z,9.13
2019-04-11T11:54:49.838Z,9.10
2019-04-11T11:57:30.853Z,8.30
2019-04-11T12:00:13.325Z,9.03
2019-04-11T12:03:13.989Z,9.30
2019-04-11T12:05:54.033Z,10.40
2019-04-11T12:08:54.047Z,10.00
2019-04-11T12:11:28.252Z,9.77
2019-04-11T12:14:24.286Z,9.37
2019-04-11T12:17:14.815Z,9.27
2019-04-11T12:20:01.414Z,9.13
2019-04-11T12:22:28.796Z,9.27
2019-04-11T12:25:09.375Z,9.97
2019-04-11T12:28:05.271Z,10.70
2019-04-11T12:30:42.522Z,9.50
2019-04-11T12:33:37.307Z,9.60
2019-04-11T12:36:16.749Z,9.77
2019-04-11T12:39:08.961Z,10.53
2019-04-11T12:42:04.854Z,10.27
2019-04-11T12:44:54.785Z,10.50
2019-04-11T12:47:33.499Z,9.80
2019-04-11T12:50:32.363Z,9.47
2019-04-11T12:53:09.694Z,9.67
2019-04-11T12:56:15.836Z,9.93
2019-04-11T12:58:59.778Z,9.47
2019-04-11T13:01:57.005Z,10.03
2019-04-11T13:04:38.927Z,10.07
2019-04-11T13:07:34.369Z,10.30
2019-04-11T13:10:29.818Z,10.50
2019-04-11T13:13:21.094Z,10.50
2019-04-11T13:16:13.389Z,10.17
2019-04-11T13:19:03.868Z,10.67
2019-04-11T13:21:47.016Z,10.83
2019-04-11T13:24:50.231Z,10.30
2019-04-11T13:27:28.440Z,11.23
2019-04-11T13:30:18.947Z,10.53
2019-04-11T13:32:55.992Z,11.23
2019-04-11T13:36:07.583Z,11.27
2019-04-11T13:38:44.624Z,11.90
2019-04-11T13:41:48.165Z,11.27
2019-04-11T13:44:30.567Z,10.60
2019-04-11T13:47:20.383Z,10.87
2019-04-11T13:49:58.650Z,9.93
2019-04-11T13:52:48.741Z,11.07
2019-04-11T13:55:28.102Z,10.07
2019-04-11T13:58:34.640Z,9.90
2019-04-11T14:01:15.495Z,10.17
2019-04-11T14:03:55.564Z,10.13
2019-04-11T14:06:51.573Z,9.97
2019-04-11T14:09:33.091Z,10.63
2019-04-11T14:12:10.098Z,10.80
2019-04-11T14:15:06.344Z,10.30
2019-04-11T14:18:11.723Z,10.17
2019-04-11T14:20:51.275Z,10.07
2019-04-11T14:23:42.731Z,10.37
2019-04-11T14:26:33.596Z,9.97
2019-04-11T14:29:13.782Z,9.67
2019-04-11T14:31:58.399Z,10.73
2019-04-11T14:34:49.910Z,9.70
2019-04-11T14:37:33.154Z,10.13
2019-04-11T14:40:11.549Z,10.43
2019-04-11T14:43:18.781Z,9.63
2019-04-11T14:46:25.105Z,9.83
2019-04-11T14:49:16.488Z,10.50
2019-04-11T14:52:09.211Z,10.17
2019-04-11T14:54:53.129Z,11.07
2019-04-11T14:57:48.515Z,10.87
2019-04-11T15:00:30.314Z,10.57
2019-04-11T15:03:17.422Z,10.50
2019-04-11T15:06:14.766Z,10.50
2019-04-11T15:09:05.061Z,10.93
2019-04-11T15:11:50.802Z,9.50
2019-04-11T15:14:51.592Z,11.37
2019-04-11T15:17:28.253Z,9.97
2019-04-11T15:20:33.859Z,9.90
2019-04-11T15:23:16.701Z,9.40
2019-04-11T15:26:10.296Z,9.33
2019-04-11T15:28:49.385Z,10.00
2019-04-11T15:31:39.273Z,9.73
2019-04-11T15:34:37.853Z,10.53
2019-04-11T15:37:41.149Z,10.47
2019-04-11T15:40:25.846Z,9.53
2019-04-11T15:43:42.001Z,10.50
2019-04-11T15:46:20.423Z,9.77
2019-04-11T15:49:20.849Z,10.20
2019-04-11T15:52:24.473Z,9.73
2019-04-11T15:55:22.074Z,10.20
2019-04-11T15:57:56.194Z,9.73
2019-04-11T16:01:09.997Z,9.50
2019-04-11T16:03:43.541Z,9.93
2019-04-11T16:06:35.242Z,9.20
2019-04-11T16:09:11.946Z,9.03
2019-04-11T16:12:10.533Z,9.10
2019-04-11T16:14:43.997Z,9.40
2019-04-11T16:23:56.962Z,9.33
2019-04-11T16:26:38.635Z,10.50
2019-04-11T16:29:26.000Z,10.70
2019-04-11T16:32:01.196Z,9.93
2019-04-11T16:34:55.716Z,10.63
2019-04-11T16:37:28.862Z,9.50
2019-04-11T16:40:35.583Z,9.73
2019-04-11T16:43:13.760Z,9.87
2019-04-11T16:46:06.339Z,10.67
2019-04-11T16:48:38.738Z,10.60
2019-04-11T16:51:12.419Z,10.50
2019-04-11T16:53:50.285Z,10.60
2019-04-11T16:56:24.222Z,10.60
2019-04-11T16:58:59.281Z,11.13
2019-04-11T17:01:36.418Z,11.23
2019-04-11T17:04:08.428Z,11.10
2019-04-11T17:07:01.595Z,10.43
2019-04-11T17:09:41.282Z,10.17
2019-04-11T17:12:14.885Z,10.33
2019-04-11T17:14:50.869Z,10.27
2019-04-11T17:17:26.206Z,11.00
2019-04-11T17:19:58.063Z,11.00
2019-04-11T17:22:30.768Z,10.20
2019-04-11T17:25:02.463Z,10.43
2019-04-11T17:27:37.690Z,9.57
2019-04-11T17:30:11.269Z,10.33
2019-04-11T17:32:43.411Z,10.63
2019-04-11T17:35:16.296Z,10.03
2019-04-11T17:37:49.445Z,10.50
2019-04-11T17:40:22.419Z,11.47
2019-04-11T17:42:57.428Z,11.47
2019-04-11T17:45:29.476Z,9.93
2019-04-11T17:48:01.866Z,10.57
2019-04-11T17:50:34.988Z,10.57
2019-04-11T17:53:08.225Z,10.57
2019-04-11T17:55:41.898Z,10.03
2019-04-11T17:58:14.634Z,9.90
2019-04-11T18:00:51.913Z,10.20
2019-04-11T18:03:27.722Z,9.70
2019-04-11T18:06:01.234Z,9.70
2019-04-11T18:08:33.755Z,9.27
2019-04-11T18:11:06.720Z,9.53
2019-04-11T18:13:40.511Z,8.70
2019-04-11T18:16:12.921Z,8.77
2019-04-11T18:18:44.838Z,8.57
2019-04-11T18:21:20.087Z,8.70
2019-04-11T18:23:53.848Z,9.00
2019-04-11T18:26:27.616Z,8.43
2019-04-11T18:28:59.995Z,9.20
2019-04-11T18:31:42.415Z,8.80
2019-04-11T18:34:24.261Z,8.53
2019-04-11T18:37:02.036Z,8.33
2019-04-11T18:39:37.360Z,8.63
2019-04-11T18:42:10.631Z,8.07
2019-04-11T18:44:50.397Z,8.90
2019-04-11T18:47:34.894Z,7.90
2019-04-11T18:50:17.403Z,8.40
2019-04-11T18:52:59.258Z,8.80
2019-04-11T18:55:35.820Z,8.73
2019-04-11T18:58:14.004Z,8.30
2019-04-11T19:00:56.332Z,8.20
2019-04-11T19:03:36.333Z,8.10
2019-04-11T19:06:13.954Z,7.90
2019-04-11T19:08:50.399Z,7.60
2019-04-11T19:11:23.727Z,7.80
2019-04-11T19:13:57.694Z,8.40
2019-04-11T19:16:32.495Z,8.27
2019-04-11T19:19:06.078Z,8.00
2019-04-11T19:21:41.418Z,8.03
2019-04-11T19:24:17.653Z,7.20
2019-04-11T19:26:56.286Z,8.00
2019-04-11T19:29:31.089Z,8.10
2019-04-11T19:32:05.653Z,7.37
2019-04-11T19:34:39.816Z,7.80
2019-04-11T19:37:13.690Z,8.47
2019-04-11T19:39:48.157Z,7.67
2019-04-11T19:42:23.875Z,7.50
2019-04-11T19:44:58.122Z,7.93
2019-04-11T19:47:33.335Z,8.10
2019-04-11T19:50:08.601Z,7.87
2019-04-11T19:52:45.860Z,7.07
2019-04-11T19:55:38.574Z,8.20
2019-04-11T19:58:13.671Z,8.10
2019-04-11T20:00:53.200Z,7.73
2019-04-11T20:03:24.920Z,7.97
2019-04-11T20:05:59.415Z,7.80
2019-04-11T20:08:33.794Z,7.73
2019-04-11T20:11:09.302Z,8.00
2019-04-11T20:13:51.017Z,7.50
2019-04-11T20:16:41.022Z,7.90
2019-04-11T20:19:09.475Z,7.57
2019-04-11T20:21:48.834Z,7.53
2019-04-11T20:24:28.735Z,7.93
2019-04-11T20:27:07.344Z,7.53
2019-04-11T20:29:51.004Z,7.80
2019-04-11T20:32:26.875Z,7.17
2019-04-11T20:35:02.298Z,7.07
2019-04-11T20:37:44.684Z,7.60
2019-04-11T20:40:23.022Z,7.70
2019-04-11T20:43:00.316Z,7.03
2019-04-11T20:45:42.174Z,7.37
2019-04-11T20:48:18.138Z,7.10
2019-04-11T20:50:54.621Z,7.17
2019-04-11T20:53:30.550Z,7.57
2019-04-11T20:56:04.172Z,7.77
2019-04-11T20:58:39.730Z,7.33
2019-04-11T21:01:14.055Z,7.70
2019-04-11T21:03:48.881Z,7.80
2019-04-11T21:06:22.771Z,7.63
2019-04-11T21:09:02.829Z,6.70
2019-04-11T21:11:38.421Z,7.43
2019-04-11T21:14:12.526Z,7.20
2019-04-11T21:16:52.562Z,7.03
2019-04-11T21:19:31.482Z,7.33
2019-04-11T21:22:23.969Z,7.23
2019-04-11T21:25:00.121Z,7.83
2019-04-11T21:27:35.245Z,7.17
2019-04-11T21:30:11.540Z,6.67
2019-04-11T21:32:50.121Z,7.07
2019-04-11T21:35:26.121Z,6.70
2019-04-11T21:38:02.795Z,7.53
2019-04-11T21:40:37.760Z,7.10
2019-04-11T21:43:11.803Z,7.37
2019-04-11T21:45:46.257Z,7.30
2019-04-11T21:48:19.605Z,6.60
2019-04-11T21:50:53.836Z,7.33
2019-04-11T21:53:36.848Z,7.30
2019-04-11T21:56:18.650Z,7.67
2019-04-11T21:58:52.522Z,7.13
2019-04-11T22:01:34.016Z,7.60
2019-04-11T22:04:14.099Z,7.17
2019-04-11T22:06:52.197Z,7.30
2019-04-11T22:09:26.501Z,7.50
2019-04-11T22:12:07.667Z,7.10
2019-04-11T22:14:46.770Z,7.00
2019-04-11T22:17:22.070Z,7.67
2019-04-11T22:20:00.092Z,7.30
2019-04-11T22:22:33.693Z,7.47
2019-04-11T22:25:10.652Z,7.27
2019-04-11T22:27:55.455Z,7.40
2019-04-11T22:30:30.563Z,7.30
2019-04-11T22:33:19.033Z,6.90
2019-04-11T22:35:56.974Z,7.67
2019-04-11T22:38:38.796Z,7.23
2019-04-11T22:41:14.196Z,8.27
2019-04-11T22:43:56.868Z,7.47
2019-04-11T22:46:37.400Z,7.13
2019-04-11T22:49:15.705Z,8.03
2019-04-11T22:51:50.304Z,7.63
2019-04-11T22:54:30.703Z,7.30
2019-04-11T22:57:04.727Z,7.40
2019-04-11T22:59:38.229Z,7.37
2019-04-11T23:02:24.597Z,7.70
2019-04-11T23:04:59.227Z,7.10
2019-04-11T23:07:32.268Z,7.13
2019-04-11T23:10:06.636Z,7.23
2019-04-11T23:12:42.909Z,7.47
2019-04-11T23:15:16.763Z,7.23
2019-04-11T23:17:50.939Z,7.73
2019-04-11T23:20:26.583Z,6.73
2019-04-11T23:23:02.810Z,7.20
2019-04-11T23:25:37.661Z,7.67
2019-04-11T23:28:11.073Z,7.57
2019-04-11T23:30:49.485Z,7.67
2019-04-11T23:33:21.426Z,7.97
2019-04-11T23:35:54.969Z,7.13
2019-04-11T23:38:29.199Z,8.23
2019-04-11T23:41:02.801Z,7.20
2019-04-11T23:43:36.941Z,7.13
2019-04-11T23:46:10.489Z,7.53
2019-04-11T23:48:46.445Z,7.53
2019-04-11T23:51:20.349Z,7.83
2019-04-11T23:53:53.822Z,7.60
2019-04-11T23:56:30.602Z,7.20
2019-04-11T23:59:05.614Z,8.27
